Fisher, Arkansas
Current Conditions -  °F | °C
As of 2:56 AM on Thursday 23 Oct 2014 (Local Time) from KM19 Reporting Station
Clear Clear  
Wind Chill: 40°   Ceiling: Unl
Heat Index: 43°   Visibility: 10mi
Dew Point: 41°   Wind: 5mph
Humidity: 93%   Direction: 350°N
Pressure: 30.2"   Gusts: NA
Location:  35.49°N, 90.97°W
Report Text: KM19 230756Z AUTO 35004KT 10SM CLR 06/05 A3020 RMK AO2 T00610050 SLP225
Loading
Personal Weather Stations






























Interactive Weather Map
Tropical Storm Tracking
New forecast layout! Learn more

10-Day Weather Forecast

Advertisements
Track Severe Weather on mobile